Cleveland, North Dakota
Current Conditions -  °F | °C
As of 7:56 AM on Saturday 20 Dec 2014 (Local Time) from KJMS Reporting Station
Moderate Fog Moderate Fog  
Wind Chill:   Ceiling: 200
Heat Index: 19°   Visibility: 0.5mi
Dew Point: 15°   Wind: 9mph
Humidity: 85%   Direction: 170°S
Pressure: 29.95"   Gusts: NA
Location:  46.89°N, 99.12°W
Report Text: KJMS 201356Z AUTO 17008KT 1/2SM FZFG VV002 M07/M09 A2995 RMK AO2 SLP170 I1001 T10721094
Loading
Personal Weather Stations






























Interactive Weather Map New forecast layout! Learn more

10-Day Weather Forecast

Advertisements
Track Severe Weather on mobile